sensor_id;sensor_type;location;lat;lon;timestamp;pressure;altitude;pressure_sealevel;temperature;humidity
11808;BME280;5961;42.640;23.380;2023-06-22T00:00:47;94512.19;;;21.63;78.76
11808;BME280;5961;42.640;23.380;2023-06-22T00:03:13;94504.44;;;21.62;79.18
11808;BME280;5961;42.640;23.380;2023-06-22T00:05:40;94500.97;;;21.58;79.17
11808;BME280;5961;42.640;23.380;2023-06-22T00:08:07;94500.97;;;21.58;79.72
11808;BME280;5961;42.640;23.380;2023-06-22T00:10:33;94505.59;;;21.61;79.29
11808;BME280;5961;42.640;23.380;2023-06-22T00:13:02;94503.31;;;21.49;79.37
11808;BME280;5961;42.640;23.380;2023-06-22T00:15:28;94507.97;;;21.41;79.00
11808;BME280;5961;42.640;23.380;2023-06-22T00:17:55;94490.97;;;21.41;77.70
11808;BME280;5961;42.640;23.380;2023-06-22T00:20:22;94499.47;;;21.32;77.97
11808;BME280;5961;42.640;23.380;2023-06-22T00:22:53;94489.06;;;21.20;78.34
11808;BME280;5961;42.640;23.380;2023-06-22T00:25:20;94488.66;;;21.25;78.46
11808;BME280;5961;42.640;23.380;2023-06-22T00:27:46;94480.19;;;21.16;78.94
11808;BME280;5961;42.640;23.380;2023-06-22T00:30:15;94479.41;;;21.19;79.37
11808;BME280;5961;42.640;23.380;2023-06-22T00:32:42;94473.63;;;21.20;80.48
11808;BME280;5961;42.640;23.380;2023-06-22T00:35:09;94422.69;;;20.87;80.87
11808;BME280;5961;42.640;23.380;2023-06-22T00:37:36;94466.66;;;21.19;81.02
11808;BME280;5961;42.640;23.380;2023-06-22T00:40:04;94468.22;;;21.20;79.26
11808;BME280;5961;42.640;23.380;2023-06-22T00:42:31;94474.78;;;21.26;78.76
11808;BME280;5961;42.640;23.380;2023-06-22T00:44:58;94467.44;;;21.27;78.34
11808;BME280;5961;42.640;23.380;2023-06-22T00:47:27;94466.25;;;21.31;78.38
11808;BME280;5961;42.640;23.380;2023-06-22T00:49:54;94472.06;;;21.19;80.38
11808;BME280;5961;42.640;23.380;2023-06-22T00:52:22;94460.88;;;20.96;81.91
11808;BME280;5961;42.640;23.380;2023-06-22T00:54:55;94463.97;;;20.49;85.00
11808;BME280;5961;42.640;23.380;2023-06-22T00:57:24;94466.56;;;20.20;86.98
11808;BME280;5961;42.640;23.380;2023-06-22T00:59:53;94465.72;;;19.95;88.60
11808;BME280;5961;42.640;23.380;2023-06-22T01:02:20;94457.94;;;19.73;89.70
11808;BME280;5961;42.640;23.380;2023-06-22T01:04:48;94453.25;;;19.62;90.96
11808;BME280;5961;42.640;23.380;2023-06-22T01:07:21;94456.69;;;19.56;91.71
11808;BME280;5961;42.640;23.380;2023-06-22T01:10:00;94469.41;;;19.52;92.39
11808;BME280;5961;42.640;23.380;2023-06-22T01:12:30;94471.66;;;19.43;93.08
11808;BME280;5961;42.640;23.380;2023-06-22T01:15:05;94463.50;;;19.36;93.31
11808;BME280;5961;42.640;23.380;2023-06-22T01:17:35;94465.06;;;19.37;93.41
11808;BME280;5961;42.640;23.380;2023-06-22T01:20:07;94477.06;;;19.43;93.41
11808;BME280;5961;42.640;23.380;2023-06-22T01:22:43;94472.84;;;19.52;93.08
11808;BME280;5961;42.640;23.380;2023-06-22T01:25:19;94477.53;;;19.62;92.71
11808;BME280;5961;42.640;23.380;2023-06-22T01:27:53;94472.97;;;19.70;92.70
11808;BME280;5961;42.640;23.380;2023-06-22T01:30:28;94464.88;;;19.70;92.56
11808;BME280;5961;42.640;23.380;2023-06-22T01:32:57;94481.47;;;19.86;92.37
11808;BME280;5961;42.640;23.380;2023-06-22T01:35:25;94476.09;;;19.86;92.00
11808;BME280;5961;42.640;23.380;2023-06-22T01:37:52;94490.00;;;19.88;92.11
11808;BME280;5961;42.640;23.380;2023-06-22T01:40:20;94482.97;;;19.77;92.45
11808;BME280;5961;42.640;23.380;2023-06-22T01:42:48;94472.56;;;19.71;93.10
11808;BME280;5961;42.640;23.380;2023-06-22T01:45:15;94478.69;;;19.58;93.56
11808;BME280;5961;42.640;23.380;2023-06-22T01:47:44;94465.53;;;19.46;94.30
11808;BME280;5961;42.640;23.380;2023-06-22T01:50:11;94483.63;;;19.49;95.20
11808;BME280;5961;42.640;23.380;2023-06-22T01:52:38;94492.13;;;19.51;95.35
11808;BME280;5961;42.640;23.380;2023-06-22T01:55:05;94495.56;;;19.48;95.89
11808;BME280;5961;42.640;23.380;2023-06-22T01:57:33;94487.84;;;19.43;96.77
11808;BME280;5961;42.640;23.380;2023-06-22T02:00:02;94495.19;;;19.46;97.10
11808;BME280;5961;42.640;23.380;2023-06-22T02:02:33;94492.09;;;19.47;96.67
11808;BME280;5961;42.640;23.380;2023-06-22T02:05:06;94492.09;;;19.47;96.49
11808;BME280;5961;42.640;23.380;2023-06-22T02:07:40;94498.31;;;19.55;96.02
11808;BME280;5961;42.640;23.380;2023-06-22T02:10:09;94491.72;;;19.49;95.32
11808;BME280;5961;42.640;23.380;2023-06-22T02:12:38;94497.56;;;19.58;94.24
11808;BME280;5961;42.640;23.380;2023-06-22T02:15:06;94505.28;;;19.63;92.04
11808;BME280;5961;42.640;23.380;2023-06-22T02:17:33;94506.06;;;19.70;91.54
11808;BME280;5961;42.640;23.380;2023-06-22T02:20:03;94500.72;;;19.78;90.94
11808;BME280;5961;42.640;23.380;2023-06-22T02:22:33;94487.97;;;19.71;91.79
11808;BME280;5961;42.640;23.380;2023-06-22T02:25:00;94490.34;;;19.83;91.08
11808;BME280;5961;42.640;23.380;2023-06-22T02:27:27;94494.22;;;19.93;90.69
11808;BME280;5961;42.640;23.380;2023-06-22T02:29:54;94497.72;;;19.93;90.86
11808;BME280;5961;42.640;23.380;2023-06-22T02:32:20;94507.34;;;19.94;90.83
11808;BME280;5961;42.640;23.380;2023-06-22T02:34:47;94490.00;;;19.99;90.04
11808;BME280;5961;42.640;23.380;2023-06-22T02:37:15;94450.97;;;19.61;89.35
11808;BME280;5961;42.640;23.380;2023-06-22T02:39:42;94489.22;;;19.91;89.93
11808;BME280;5961;42.640;23.380;2023-06-22T02:42:09;94492.31;;;19.93;90.18
11808;BME280;5961;42.640;23.380;2023-06-22T02:44:37;94490.41;;;19.97;90.14
11808;BME280;5961;42.640;23.380;2023-06-22T02:47:04;94490.00;;;19.95;89.72
11808;BME280;5961;42.640;23.380;2023-06-22T02:49:31;94468.00;;;19.86;89.34
11808;BME280;5961;42.640;23.380;2023-06-22T02:51:57;94499.28;;;20.05;89.87
11808;BME280;5961;42.640;23.380;2023-06-22T02:54:25;94497.75;;;20.00;89.01
11808;BME280;5961;42.640;23.380;2023-06-22T02:56:52;94506.19;;;19.99;88.85
11808;BME280;5961;42.640;23.380;2023-06-22T02:59:19;94507.78;;;20.03;88.52
11808;BME280;5961;42.640;23.380;2023-06-22T03:01:48;94508.91;;;20.02;88.81
11808;BME280;5961;42.640;23.380;2023-06-22T03:04:15;94509.31;;;20.04;88.71
11808;BME280;5961;42.640;23.380;2023-06-22T03:06:42;94512.41;;;20.06;89.08
11808;BME280;5961;42.640;23.380;2023-06-22T03:09:09;94443.25;;;19.63;88.91
11808;BME280;5961;42.640;23.380;2023-06-22T03:11:37;94507.44;;;20.15;88.29
11808;BME280;5961;42.640;23.380;2023-06-22T03:14:04;94513.63;;;20.23;88.19
11808;BME280;5961;42.640;23.380;2023-06-22T03:16:30;94504.75;;;20.22;88.50
11808;BME280;5961;42.640;23.380;2023-06-22T03:18:58;94519.84;;;20.31;88.03
11808;BME280;5961;42.640;23.380;2023-06-22T03:21:28;94532.16;;;20.32;88.05
11808;BME280;5961;42.640;23.380;2023-06-22T03:23:55;94531.81;;;20.37;88.01
11808;BME280;5961;42.640;23.380;2023-06-22T03:26:22;94536.41;;;20.25;88.51
11808;BME280;5961;42.640;23.380;2023-06-22T03:28:53;94539.50;;;20.28;88.69
11808;BME280;5961;42.640;23.380;2023-06-22T03:31:20;94537.13;;;20.22;88.45
11808;BME280;5961;42.640;23.380;2023-06-22T03:33:47;94528.22;;;20.11;88.57
11808;BME280;5961;42.640;23.380;2023-06-22T03:36:14;94536.31;;;20.08;89.19
11808;BME280;5961;42.640;23.380;2023-06-22T03:38:44;94541.28;;;20.02;89.85
11808;BME280;5961;42.640;23.380;2023-06-22T03:41:10;94526.63;;;19.96;90.03
11808;BME280;5961;42.640;23.380;2023-06-22T03:43:37;94537.78;;;19.91;90.83
11808;BME280;5961;42.640;23.380;2023-06-22T03:46:05;94543.94;;;19.88;90.74
11808;BME280;5961;42.640;23.380;2023-06-22T03:48:32;94546.28;;;19.97;90.69
11808;BME280;5961;42.640;23.380;2023-06-22T03:50:59;94535.84;;;19.88;90.50
11808;BME280;5961;42.640;23.380;2023-06-22T03:53:26;94546.31;;;20.00;90.15
11808;BME280;5961;42.640;23.380;2023-06-22T03:55:53;94544.00;;;20.06;90.45
11808;BME280;5961;42.640;23.380;2023-06-22T03:58:20;94540.91;;;20.07;90.01
11808;BME280;5961;42.640;23.380;2023-06-22T04:00:47;94554.91;;;20.27;90.09
11808;BME280;5961;42.640;23.380;2023-06-22T04:03:16;94556.47;;;20.35;89.31
11808;BME280;5961;42.640;23.380;2023-06-22T04:05:44;94555.75;;;20.49;88.86
11808;BME280;5961;42.640;23.380;2023-06-22T04:08:12;94566.56;;;20.56;88.76
11808;BME280;5961;42.640;23.380;2023-06-22T04:10:39;94566.97;;;20.65;88.72
11808;BME280;5961;42.640;23.380;2023-06-22T04:13:05;94568.16;;;20.74;88.49
11808;BME280;5961;42.640;23.380;2023-06-22T04:15:32;94555.81;;;20.77;87.87
11808;BME280;5961;42.640;23.380;2023-06-22T04:17:59;94553.13;;;20.88;87.84
11808;BME280;5961;42.640;23.380;2023-06-22T04:20:27;94560.06;;;20.92;87.61
11808;BME280;5961;42.640;23.380;2023-06-22T04:22:54;94559.69;;;20.97;87.47
11808;BME280;5961;42.640;23.380;2023-06-22T04:25:21;94560.47;;;21.01;87.67
11808;BME280;5961;42.640;23.380;2023-06-22T04:27:48;94548.53;;;21.09;87.59
11808;BME280;5961;42.640;23.380;2023-06-22T04:30:15;94545.03;;;21.12;87.16
11808;BME280;5961;42.640;23.380;2023-06-22T04:32:42;94513.38;;;20.99;87.09
11808;BME280;5961;42.640;23.380;2023-06-22T04:35:09;94537.72;;;21.13;87.23
11808;BME280;5961;42.640;23.380;2023-06-22T04:37:37;94535.03;;;21.16;88.09
11808;BME280;5961;42.640;23.380;2023-06-22T04:40:07;94526.91;;;21.13;88.07
11808;BME280;5961;42.640;23.380;2023-06-22T04:42:34;94528.84;;;21.19;89.07
11808;BME280;5961;42.640;23.380;2023-06-22T04:45:02;94535.78;;;21.20;89.55
11808;BME280;5961;42.640;23.380;2023-06-22T04:47:29;94526.50;;;21.21;89.69
11808;BME280;5961;42.640;23.380;2023-06-22T04:49:56;94532.31;;;21.20;89.93
11808;BME280;5961;42.640;23.380;2023-06-22T04:52:22;94528.84;;;21.19;90.05
11808;BME280;5961;42.640;23.380;2023-06-22T04:54:51;94532.31;;;21.16;89.97
11808;BME280;5961;42.640;23.380;2023-06-22T04:57:21;94540.81;;;21.18;89.99
11808;BME280;5961;42.640;23.380;2023-06-22T04:59:58;94534.63;;;21.14;90.03
11808;BME280;5961;42.640;23.380;2023-06-22T05:02:41;94543.50;;;21.18;89.39
11808;BME280;5961;42.640;23.380;2023-06-22T05:05:09;94548.53;;;21.27;89.03
11808;BME280;5961;42.640;23.380;2023-06-22T05:07:39;94563.59;;;21.35;88.40
11808;BME280;5961;42.640;23.380;2023-06-22T05:10:10;94540.81;;;21.25;88.15
11808;BME280;5961;42.640;23.380;2023-06-22T05:12:37;94515.31;;;21.19;88.52
11808;BME280;5961;42.640;23.380;2023-06-22T05:15:05;94551.59;;;21.54;88.16
11808;BME280;5961;42.640;23.380;2023-06-22T05:17:32;94558.53;;;21.62;87.67
11808;BME280;5961;42.640;23.380;2023-06-22T05:19:59;94559.31;;;21.66;87.27
11808;BME280;5961;42.640;23.380;2023-06-22T05:22:26;94551.94;;;21.73;86.91
11808;BME280;5961;42.640;23.380;2023-06-22T05:24:53;94526.84;;;21.59;86.53
11808;BME280;5961;42.640;23.380;2023-06-22T05:27:21;94559.66;;;21.85;85.71
11808;BME280;5961;42.640;23.380;2023-06-22T05:29:47;94561.22;;;21.90;85.23
11808;BME280;5961;42.640;23.380;2023-06-22T05:32:14;94569.69;;;21.99;85.26
11808;BME280;5961;42.640;23.380;2023-06-22T05:34:41;94569.66;;;22.06;86.12
11808;BME280;5961;42.640;23.380;2023-06-22T05:37:07;94572.75;;;22.12;85.71
11808;BME280;5961;42.640;23.380;2023-06-22T05:39:35;94581.25;;;22.17;84.56
11808;BME280;5961;42.640;23.380;2023-06-22T05:42:04;94584.69;;;22.21;84.54
11808;BME280;5961;42.640;23.380;2023-06-22T05:44:32;94588.94;;;22.26;84.25
11808;BME280;5961;42.640;23.380;2023-06-22T05:47:00;94590.88;;;22.32;84.58
11808;BME280;5961;42.640;23.380;2023-06-22T05:49:26;94597.41;;;22.38;84.63
11808;BME280;5961;42.640;23.380;2023-06-22T05:51:55;94595.06;;;22.40;84.84
11808;BME280;5961;42.640;23.380;2023-06-22T05:54:22;94597.38;;;22.46;84.72
11808;BME280;5961;42.640;23.380;2023-06-22T05:56:49;94600.06;;;22.46;84.60
11808;BME280;5961;42.640;23.380;2023-06-22T05:59:15;94596.19;;;22.54;85.14
11808;BME280;5961;42.640;23.380;2023-06-22T06:01:43;94593.44;;;22.61;84.83
11808;BME280;5961;42.640;23.380;2023-06-22T06:04:10;94590.34;;;22.62;84.63
11808;BME280;5961;42.640;23.380;2023-06-22T06:06:37;94599.22;;;22.70;85.00
11808;BME280;5961;42.640;23.380;2023-06-22T06:09:03;94588.00;;;22.71;85.75
11808;BME280;5961;42.640;23.380;2023-06-22T06:11:30;94586.41;;;22.77;85.32
11808;BME280;5961;42.640;23.380;2023-06-22T06:13:57;94585.22;;;22.82;84.86
11808;BME280;5961;42.640;23.380;2023-06-22T06:16:24;94587.13;;;22.85;85.15
11808;BME280;5961;42.640;23.380;2023-06-22T06:18:52;94587.09;;;22.92;85.21
11808;BME280;5961;42.640;23.380;2023-06-22T06:21:20;94582.00;;;23.01;86.40
11808;BME280;5961;42.640;23.380;2023-06-22T06:23:46;94582.00;;;23.05;86.96
11808;BME280;5961;42.640;23.380;2023-06-22T06:26:13;94566.50;;;23.05;87.38
11808;BME280;5961;42.640;23.380;2023-06-22T06:28:42;94583.47;;;23.13;88.34
11808;BME280;5961;42.640;23.380;2023-06-22T06:31:08;94581.53;;;23.13;88.24
11808;BME280;5961;42.640;23.380;2023-06-22T06:33:35;94573.03;;;23.15;87.38
11808;BME280;5961;42.640;23.380;2023-06-22T06:36:03;94586.91;;;23.24;88.03
11808;BME280;5961;42.640;23.380;2023-06-22T06:38:30;94579.47;;;23.28;89.03
11808;BME280;5961;42.640;23.380;2023-06-22T06:40:57;94573.25;;;23.34;88.52
11808;BME280;5961;42.640;23.380;2023-06-22T06:43:24;94577.09;;;23.40;86.69
11808;BME280;5961;42.640;23.380;2023-06-22T06:45:51;94573.56;;;23.47;86.05
11808;BME280;5961;42.640;23.380;2023-06-22T06:48:18;94570.41;;;23.52;85.65
11808;BME280;5961;42.640;23.380;2023-06-22T06:50:44;94572.66;;;23.61;85.44
11808;BME280;5961;42.640;23.380;2023-06-22T06:53:12;94568.75;;;23.65;85.58
11808;BME280;5961;42.640;23.380;2023-06-22T06:55:39;94567.84;;;23.75;85.80
11808;BME280;5961;42.640;23.380;2023-06-22T06:58:06;94548.47;;;23.77;85.49
11808;BME280;5961;42.640;23.380;2023-06-22T07:00:35;94552.25;;;23.86;82.96
11808;BME280;5961;42.640;23.380;2023-06-22T07:03:02;94566.09;;;23.99;81.98
11808;BME280;5961;42.640;23.380;2023-06-22T07:05:29;94558.59;;;24.07;80.62
11808;BME280;5961;42.640;23.380;2023-06-22T07:07:55;94550.50;;;24.03;80.38
11808;BME280;5961;42.640;23.380;2023-06-22T07:10:24;94559.38;;;24.07;79.91
11808;BME280;5961;42.640;23.380;2023-06-22T07:12:50;94560.88;;;24.15;79.88
11808;BME280;5961;42.640;23.380;2023-06-22T07:15:17;94575.53;;;24.21;80.20
11808;BME280;5961;42.640;23.380;2023-06-22T07:17:44;94560.34;;;24.27;79.43
11808;BME280;5961;42.640;23.380;2023-06-22T07:20:11;94566.91;;;24.30;79.20
11808;BME280;5961;42.640;23.380;2023-06-22T07:22:38;94563.38;;;24.33;78.95
11808;BME280;5961;42.640;23.380;2023-06-22T07:25:06;94566.81;;;24.37;77.99
11808;BME280;5961;42.640;23.380;2023-06-22T07:27:37;94547.84;;;24.33;81.88
11808;BME280;5961;42.640;23.380;2023-06-22T07:30:06;94565.16;;;24.46;82.45
11808;BME280;5961;42.640;23.380;2023-06-22T07:32:33;94561.63;;;24.49;81.92
11808;BME280;5961;42.640;23.380;2023-06-22T07:34:59;94560.38;;;24.54;81.62
11808;BME280;5961;42.640;23.380;2023-06-22T07:37:27;94542.34;;;24.40;79.73
11808;BME280;5961;42.640;23.380;2023-06-22T07:39:54;94568.06;;;24.63;78.52
11808;BME280;5961;42.640;23.380;2023-06-22T07:42:24;94566.06;;;24.67;78.47
11808;BME280;5961;42.640;23.380;2023-06-22T07:44:52;94569.50;;;24.71;77.77
11808;BME280;5961;42.640;23.380;2023-06-22T07:47:19;94570.22;;;24.75;79.02
11808;BME280;5961;42.640;23.380;2023-06-22T07:49:50;94564.31;;;24.80;78.65
11808;BME280;5961;42.640;23.380;2023-06-22T07:52:17;94566.25;;;24.83;77.58
11808;BME280;5961;42.640;23.380;2023-06-22T07:54:43;94572.34;;;24.90;77.85
11808;BME280;5961;42.640;23.380;2023-06-22T07:57:12;94575.75;;;24.98;78.23
11808;BME280;5961;42.640;23.380;2023-06-22T07:59:39;94567.06;;;25.06;78.02
11808;BME280;5961;42.640;23.380;2023-06-22T08:02:07;94562.31;;;25.14;76.17
11808;BME280;5961;42.640;23.380;2023-06-22T08:04:34;94566.09;;;25.20;74.53
11808;BME280;5961;42.640;23.380;2023-06-22T08:07:02;94559.84;;;25.23;72.71
11808;BME280;5961;42.640;23.380;2023-06-22T08:09:30;94558.94;;;25.30;73.00
11808;BME280;5961;42.640;23.380;2023-06-22T08:11:57;94556.53;;;25.35;73.04
11808;BME280;5961;42.640;23.380;2023-06-22T08:14:25;94561.16;;;25.38;73.80
11808;BME280;5961;42.640;23.380;2023-06-22T08:16:51;94555.56;;;25.45;73.70
11808;BME280;5961;42.640;23.380;2023-06-22T08:19:19;94548.94;;;25.50;74.14
11808;BME280;5961;42.640;23.380;2023-06-22T08:21:46;94554.22;;;25.57;74.78
11808;BME280;5961;42.640;23.380;2023-06-22T08:24:13;94543.34;;;25.57;74.02
11808;BME280;5961;42.640;23.380;2023-06-22T08:26:40;94527.97;;;25.47;72.75
11808;BME280;5961;42.640;23.380;2023-06-22T08:29:06;94536.66;;;25.61;72.67
11808;BME280;5961;42.640;23.380;2023-06-22T08:31:33;94535.13;;;25.60;72.52
11808;BME280;5961;42.640;23.380;2023-06-22T08:34:00;94537.31;;;25.69;72.51
11808;BME280;5961;42.640;23.380;2023-06-22T08:36:28;94532.56;;;25.73;72.57
11808;BME280;5961;42.640;23.380;2023-06-22T08:38:55;94533.28;;;25.77;71.81
11808;BME280;5961;42.640;23.380;2023-06-22T08:41:23;94539.13;;;25.76;71.52
11808;BME280;5961;42.640;23.380;2023-06-22T08:43:50;94539.50;;;25.78;71.58
11808;BME280;5961;42.640;23.380;2023-06-22T08:46:17;94546.75;;;25.84;71.47
11808;BME280;5961;42.640;23.380;2023-06-22T08:48:47;94548.66;;;25.87;71.43
11808;BME280;5961;42.640;23.380;2023-06-22T08:51:14;94549.34;;;25.91;72.15
11808;BME280;5961;42.640;23.380;2023-06-22T08:53:42;94549.69;;;25.93;72.36
11808;BME280;5961;42.640;23.380;2023-06-22T08:56:10;94539.28;;;25.88;73.41
11808;BME280;5961;42.640;23.380;2023-06-22T08:58:37;94547.69;;;25.97;72.47
11808;BME280;5961;42.640;23.380;2023-06-22T09:01:03;94538.69;;;26.00;72.33
11808;BME280;5961;42.640;23.380;2023-06-22T09:03:30;94533.16;;;26.04;71.34
11808;BME280;5961;42.640;23.380;2023-06-22T09:05:58;94531.63;;;26.03;70.51
11808;BME280;5961;42.640;23.380;2023-06-22T09:08:24;94531.13;;;26.08;69.39
11808;BME280;5961;42.640;23.380;2023-06-22T09:10:52;94524.16;;;26.07;69.78
11808;BME280;5961;42.640;23.380;2023-06-22T09:13:19;94534.53;;;26.15;68.37
11808;BME280;5961;42.640;23.380;2023-06-22T09:15:47;94533.25;;;26.20;68.43
11808;BME280;5961;42.640;23.380;2023-06-22T09:18:14;94527.34;;;26.25;68.86
11808;BME280;5961;42.640;23.380;2023-06-22T09:20:41;94519.22;;;26.22;68.77
11808;BME280;5961;42.640;23.380;2023-06-22T09:23:07;94531.50;;;26.30;67.80
11808;BME280;5961;42.640;23.380;2023-06-22T09:25:34;94535.34;;;26.32;67.12
11808;BME280;5961;42.640;23.380;2023-06-22T09:28:03;94529.06;;;26.35;66.28
11808;BME280;5961;42.640;23.380;2023-06-22T09:30:29;94528.56;;;26.40;66.46
11808;BME280;5961;42.640;23.380;2023-06-22T09:32:56;94501.25;;;26.24;66.59
11808;BME280;5961;42.640;23.380;2023-06-22T09:35:23;94523.91;;;26.41;65.29
11808;BME280;5961;42.640;23.380;2023-06-22T09:37:49;94541.13;;;26.54;64.76
11808;BME280;5961;42.640;23.380;2023-06-22T09:40:16;94544.56;;;26.58;64.58
11808;BME280;5961;42.640;23.380;2023-06-22T09:42:43;94535.53;;;26.61;64.36
11808;BME280;5961;42.640;23.380;2023-06-22T09:45:11;94534.69;;;26.64;63.39
11808;BME280;5961;42.640;23.380;2023-06-22T09:47:38;94536.13;;;26.68;64.18
11808;BME280;5961;42.640;23.380;2023-06-22T09:50:05;94537.28;;;26.71;63.41
11808;BME280;5961;42.640;23.380;2023-06-22T09:52:32;94538.72;;;26.76;63.29
11808;BME280;5961;42.640;23.380;2023-06-22T09:54:59;94521.06;;;26.64;61.72
11808;BME280;5961;42.640;23.380;2023-06-22T09:57:25;94539.78;;;26.82;61.93
11808;BME280;5961;42.640;23.380;2023-06-22T09:59:53;94518.44;;;26.77;62.28
11808;BME280;5961;42.640;23.380;2023-06-22T10:02:21;94529.91;;;26.88;61.97
11808;BME280;5961;42.640;23.380;2023-06-22T10:04:48;94524.03;;;26.89;61.94
11808;BME280;5961;42.640;23.380;2023-06-22T10:07:15;94522.41;;;26.92;61.66
11808;BME280;5961;42.640;23.380;2023-06-22T10:09:42;94520.03;;;26.94;61.06
11808;BME280;5961;42.640;23.380;2023-06-22T10:12:08;94518.41;;;26.96;61.79
11808;BME280;5961;42.640;23.380;2023-06-22T10:14:35;94530.44;;;26.99;61.78
11808;BME280;5961;42.640;23.380;2023-06-22T10:17:02;94507.25;;;26.91;61.22
11808;BME280;5961;42.640;23.380;2023-06-22T10:19:30;94508.09;;;27.04;60.99
11808;BME280;5961;42.640;23.380;2023-06-22T10:21:57;94511.00;;;27.13;61.08
11808;BME280;5961;42.640;23.380;2023-06-22T10:24:23;94506.66;;;27.15;60.21
11808;BME280;5961;42.640;23.380;2023-06-22T10:26:50;94478.50;;;27.02;58.67
11808;BME280;5961;42.640;23.380;2023-06-22T10:29:17;94511.09;;;27.25;59.25
11808;BME280;5961;42.640;23.380;2023-06-22T10:31:43;94507.41;;;27.32;59.50
11808;BME280;5961;42.640;23.380;2023-06-22T10:34:10;94503.81;;;27.35;57.92
11808;BME280;5961;42.640;23.380;2023-06-22T10:36:38;94506.34;;;27.46;55.99
11808;BME280;5961;42.640;23.380;2023-06-22T10:39:05;94471.44;;;27.37;56.46
11808;BME280;5961;42.640;23.380;2023-06-22T10:41:32;94498.22;;;27.58;57.11
11808;BME280;5961;42.640;23.380;2023-06-22T10:43:58;94494.94;;;27.63;58.15
11808;BME280;5961;42.640;23.380;2023-06-22T10:46:25;94488.63;;;27.66;58.13
11808;BME280;5961;42.640;23.380;2023-06-22T10:48:53;94482.31;;;27.69;57.39
11808;BME280;5961;42.640;23.380;2023-06-22T10:51:22;94494.56;;;27.77;57.89
11808;BME280;5961;42.640;23.380;2023-06-22T10:53:50;94490.47;;;27.86;57.18
11808;BME280;5961;42.640;23.380;2023-06-22T10:56:17;94490.53;;;27.98;56.47
11808;BME280;5961;42.640;23.380;2023-06-22T10:58:44;94488.38;;;28.06;55.15
11808;BME280;5961;42.640;23.380;2023-06-22T11:01:11;94483.50;;;28.13;55.82
11808;BME280;5961;42.640;23.380;2023-06-22T11:03:38;94493.44;;;28.20;55.08
11808;BME280;5961;42.640;23.380;2023-06-22T11:06:05;94493.25;;;28.27;56.15
11808;BME280;5961;42.640;23.380;2023-06-22T11:08:31;94489.09;;;28.35;56.50
11808;BME280;5961;42.640;23.380;2023-06-22T11:10:59;94481.88;;;28.41;56.31
11808;BME280;5961;42.640;23.380;2023-06-22T11:13:26;94483.88;;;28.53;55.75
11808;BME280;5961;42.640;23.380;2023-06-22T11:15:53;94484.38;;;28.64;55.75
11808;BME280;5961;42.640;23.380;2023-06-22T11:18:19;94479.09;;;28.70;55.45
11808;BME280;5961;42.640;23.380;2023-06-22T11:20:48;94474.28;;;28.86;54.79
11808;BME280;5961;42.640;23.380;2023-06-22T11:23:15;94471.66;;;28.96;55.00
11808;BME280;5961;42.640;23.380;2023-06-22T11:25:41;94467.50;;;29.04;53.90
11808;BME280;5961;42.640;23.380;2023-06-22T11:28:09;94466.38;;;29.14;49.77
11808;BME280;5961;42.640;23.380;2023-06-22T11:30:36;94467.16;;;29.27;49.92
11808;BME280;5961;42.640;23.380;2023-06-22T11:33:03;94470.28;;;29.38;51.18
11808;BME280;5961;42.640;23.380;2023-06-22T11:35:30;94464.91;;;29.47;49.01
11808;BME280;5961;42.640;23.380;2023-06-22T11:37:56;94435.66;;;29.44;49.31
11808;BME280;5961;42.640;23.380;2023-06-22T11:40:23;94460.63;;;29.80;48.05
11808;BME280;5961;42.640;23.380;2023-06-22T11:42:50;94454.03;;;29.90;48.73
11808;BME280;5961;42.640;23.380;2023-06-22T11:45:18;94472.91;;;29.88;48.70
11808;BME280;5961;42.640;23.380;2023-06-22T11:47:45;94465.66;;;29.95;47.88
11808;BME280;5961;42.640;23.380;2023-06-22T11:50:12;94452.44;;;30.02;47.59
11808;BME280;5961;42.640;23.380;2023-06-22T11:52:39;94427.34;;;30.04;49.76
11808;BME280;5961;42.640;23.380;2023-06-22T11:55:06;94453.06;;;30.28;47.92
11808;BME280;5961;42.640;23.380;2023-06-22T11:57:33;94440.91;;;30.38;47.55
11808;BME280;5961;42.640;23.380;2023-06-22T12:00:01;94448.91;;;30.45;47.47
11808;BME280;5961;42.640;23.380;2023-06-22T12:02:33;94451.88;;;30.60;46.13
11808;BME280;5961;42.640;23.380;2023-06-22T12:04:59;94449.00;;;30.63;45.33
11808;BME280;5961;42.640;23.380;2023-06-22T12:07:27;94453.41;;;30.61;45.22
11808;BME280;5961;42.640;23.380;2023-06-22T12:09:53;94452.94;;;30.62;45.48
11808;BME280;5961;42.640;23.380;2023-06-22T12:12:20;94448.41;;;30.68;45.76
11808;BME280;5961;42.640;23.380;2023-06-22T12:14:47;94441.97;;;30.62;46.47
11808;BME280;5961;42.640;23.380;2023-06-22T12:17:14;94448.47;;;30.46;46.90
11808;BME280;5961;42.640;23.380;2023-06-22T12:19:41;94451.47;;;30.39;47.57
11808;BME280;5961;42.640;23.380;2023-06-22T12:22:08;94460.34;;;30.22;52.83
11808;BME280;5961;42.640;23.380;2023-06-22T12:24:35;94441.88;;;29.91;56.12
11808;BME280;5961;42.640;23.380;2023-06-22T12:27:02;94442.06;;;29.63;57.33
11808;BME280;5961;42.640;23.380;2023-06-22T12:29:29;94458.25;;;29.23;59.48
11808;BME280;5961;42.640;23.380;2023-06-22T12:31:55;94449.13;;;28.92;60.91
11808;BME280;5961;42.640;23.380;2023-06-22T12:34:22;94449.84;;;28.54;61.43
11808;BME280;5961;42.640;23.380;2023-06-22T12:36:50;94465.91;;;28.27;62.76
11808;BME280;5961;42.640;23.380;2023-06-22T12:39:19;94475.53;;;28.03;65.73
11808;BME280;5961;42.640;23.380;2023-06-22T12:41:46;94489.00;;;27.81;68.31
11808;BME280;5961;42.640;23.380;2023-06-22T12:44:12;94493.44;;;27.46;68.47
11808;BME280;5961;42.640;23.380;2023-06-22T12:46:39;94502.97;;;27.38;70.17
11808;BME280;5961;42.640;23.380;2023-06-22T12:49:06;94498.66;;;27.24;74.98
11808;BME280;5961;42.640;23.380;2023-06-22T12:51:32;94504.88;;;27.09;77.77
11808;BME280;5961;42.640;23.380;2023-06-22T12:54:00;94503.16;;;26.83;76.30
11808;BME280;5961;42.640;23.380;2023-06-22T12:56:27;94520.41;;;26.40;77.04
11808;BME280;5961;42.640;23.380;2023-06-22T12:58:54;94523.03;;;25.85;78.91
11808;BME280;5961;42.640;23.380;2023-06-22T13:01:20;94521.63;;;25.30;82.47